La Mirada, California
Current Conditions -  °F | °C
As of 4:53 PM on Tuesday 27 Jan 2015 (Local Time) from KFUL Reporting Station
Clear Clear  
Wind Chill: 69°   Ceiling: Unl
Heat Index: 69°   Visibility: 10mi
Dew Point: 49°   Wind: 7mph
Humidity: 49%   Direction: 290°WNW
Pressure: 30.13"   Gusts: NA
Location:  33.91°N, 118.01°W
Report Text: KFUL 280053Z 29006KT 10SM CLR 21/09 A3013 RMK AO2 SLP202 T02060094
Loading
Personal Weather Stations






























Interactive Weather Map New forecast layout! Learn more

10-Day Weather Forecast

Advertisements
Track Severe Weather on mobile